sensor_id;sensor_type;location;lat;lon;timestamp;temperature;humidity
37086;DHT22;23001;45.952;12.676;2023-09-19T00:01:35;21.20;99.90
37086;DHT22;23001;45.952;12.676;2023-09-19T00:04:01;21.10;99.90
37086;DHT22;23001;45.952;12.676;2023-09-19T00:06:31;21.10;99.90
37086;DHT22;23001;45.952;12.676;2023-09-19T00:08:57;21.00;99.90
37086;DHT22;23001;45.952;12.676;2023-09-19T00:11:26;21.00;99.90
37086;DHT22;23001;45.952;12.676;2023-09-19T00:13:52;21.00;99.90
37086;DHT22;23001;45.952;12.676;2023-09-19T00:16:18;21.00;99.90
37086;DHT22;23001;45.952;12.676;2023-09-19T00:18:44;20.90;99.90
37086;DHT22;23001;45.952;12.676;2023-09-19T00:21:10;21.00;99.90
37086;DHT22;23001;45.952;12.676;2023-09-19T00:23:36;20.90;99.90
37086;DHT22;23001;45.952;12.676;2023-09-19T00:26:02;20.90;99.90
37086;DHT22;23001;45.952;12.676;2023-09-19T00:28:29;20.90;99.90
37086;DHT22;23001;45.952;12.676;2023-09-19T00:30:55;20.90;99.90
37086;DHT22;23001;45.952;12.676;2023-09-19T00:33:21;20.90;99.90
37086;DHT22;23001;45.952;12.676;2023-09-19T00:35:57;20.90;99.90
37086;DHT22;23001;45.952;12.676;2023-09-19T00:38:23;20.90;99.90
37086;DHT22;23001;45.952;12.676;2023-09-19T00:40:53;20.80;99.90
37086;DHT22;23001;45.952;12.676;2023-09-19T00:43:20;20.90;99.90
37086;DHT22;23001;45.952;12.676;2023-09-19T00:45:49;20.90;99.90
37086;DHT22;23001;45.952;12.676;2023-09-19T00:48:16;20.90;99.90
37086;DHT22;23001;45.952;12.676;2023-09-19T00:50:46;20.90;99.90
37086;DHT22;23001;45.952;12.676;2023-09-19T00:53:14;20.80;99.90
37086;DHT22;23001;45.952;12.676;2023-09-19T00:55:41;20.80;99.90
37086;DHT22;23001;45.952;12.676;2023-09-19T00:58:08;20.80;99.90
37086;DHT22;23001;45.952;12.676;2023-09-19T01:00:36;20.80;99.90
37086;DHT22;23001;45.952;12.676;2023-09-19T01:03:02;20.80;99.90
37086;DHT22;23001;45.952;12.676;2023-09-19T01:05:28;20.80;99.90
37086;DHT22;23001;45.952;12.676;2023-09-19T01:07:55;20.80;99.90
37086;DHT22;23001;45.952;12.676;2023-09-19T01:10:21;20.80;99.90
37086;DHT22;23001;45.952;12.676;2023-09-19T01:21:26;20.70;99.90
37086;DHT22;23001;45.952;12.676;2023-09-19T01:27:00;20.80;99.90
37086;DHT22;23001;45.952;12.676;2023-09-19T01:32:03;20.70;99.90
37086;DHT22;23001;45.952;12.676;2023-09-19T01:37:13;20.70;99.90
37086;DHT22;23001;45.952;12.676;2023-09-19T01:39:40;20.60;99.90
37086;DHT22;23001;45.952;12.676;2023-09-19T01:44:57;20.60;99.90
37086;DHT22;23001;45.952;12.676;2023-09-19T01:50:32;20.50;99.90
37086;DHT22;23001;45.952;12.676;2023-09-19T01:53:13;20.60;99.90
37086;DHT22;23001;45.952;12.676;2023-09-19T01:55:46;20.50;99.90
37086;DHT22;23001;45.952;12.676;2023-09-19T01:58:20;20.50;99.90
37086;DHT22;23001;45.952;12.676;2023-09-19T02:00:49;20.50;99.90
37086;DHT22;23001;45.952;12.676;2023-09-19T02:03:20;20.50;99.90
37086;DHT22;23001;45.952;12.676;2023-09-19T02:05:51;20.40;99.90
37086;DHT22;23001;45.952;12.676;2023-09-19T02:08:20;20.50;99.90
37086;DHT22;23001;45.952;12.676;2023-09-19T02:10:46;20.50;99.90
37086;DHT22;23001;45.952;12.676;2023-09-19T02:13:19;20.40;99.90
37086;DHT22;23001;45.952;12.676;2023-09-19T02:15:45;20.40;99.90
37086;DHT22;23001;45.952;12.676;2023-09-19T02:18:14;20.40;99.90
37086;DHT22;23001;45.952;12.676;2023-09-19T02:20:40;20.40;99.90
37086;DHT22;23001;45.952;12.676;2023-09-19T02:23:06;20.40;99.90
37086;DHT22;23001;45.952;12.676;2023-09-19T02:25:33;20.40;99.90
37086;DHT22;23001;45.952;12.676;2023-09-19T02:28:01;20.40;99.90
37086;DHT22;23001;45.952;12.676;2023-09-19T02:30:28;20.30;99.90
37086;DHT22;23001;45.952;12.676;2023-09-19T02:32:54;20.30;99.90
37086;DHT22;23001;45.952;12.676;2023-09-19T02:35:20;20.50;99.90
37086;DHT22;23001;45.952;12.676;2023-09-19T02:37:47;20.40;99.90
37086;DHT22;23001;45.952;12.676;2023-09-19T02:40:13;20.40;99.90
37086;DHT22;23001;45.952;12.676;2023-09-19T02:42:49;20.40;99.90
37086;DHT22;23001;45.952;12.676;2023-09-19T02:45:19;20.40;99.90
37086;DHT22;23001;45.952;12.676;2023-09-19T02:47:45;20.40;99.90
37086;DHT22;23001;45.952;12.676;2023-09-19T02:50:11;20.40;99.90
37086;DHT22;23001;45.952;12.676;2023-09-19T02:52:41;20.40;99.90
37086;DHT22;23001;45.952;12.676;2023-09-19T02:55:09;20.40;99.90
37086;DHT22;23001;45.952;12.676;2023-09-19T02:57:36;20.40;99.90
37086;DHT22;23001;45.952;12.676;2023-09-19T03:00:07;20.40;99.90
37086;DHT22;23001;45.952;12.676;2023-09-19T03:02:43;20.40;99.90
37086;DHT22;23001;45.952;12.676;2023-09-19T03:05:10;20.40;99.90
37086;DHT22;23001;45.952;12.676;2023-09-19T03:07:37;20.40;99.90
37086;DHT22;23001;45.952;12.676;2023-09-19T03:10:07;20.50;99.90
37086;DHT22;23001;45.952;12.676;2023-09-19T03:12:33;20.40;99.90
37086;DHT22;23001;45.952;12.676;2023-09-19T03:15:00;20.40;99.90
37086;DHT22;23001;45.952;12.676;2023-09-19T03:17:29;20.50;99.90
37086;DHT22;23001;45.952;12.676;2023-09-19T03:19:55;20.50;99.90
37086;DHT22;23001;45.952;12.676;2023-09-19T03:22:22;20.50;99.90
37086;DHT22;23001;45.952;12.676;2023-09-19T03:24:50;20.50;99.90
37086;DHT22;23001;45.952;12.676;2023-09-19T03:27:16;20.60;99.90
37086;DHT22;23001;45.952;12.676;2023-09-19T03:29:42;20.60;99.90
37086;DHT22;23001;45.952;12.676;2023-09-19T03:32:08;20.50;99.90
37086;DHT22;23001;45.952;12.676;2023-09-19T03:34:38;20.60;99.90
37086;DHT22;23001;45.952;12.676;2023-09-19T03:37:09;20.50;99.90
37086;DHT22;23001;45.952;12.676;2023-09-19T03:39:35;20.50;99.90
37086;DHT22;23001;45.952;12.676;2023-09-19T03:42:02;20.50;99.90
37086;DHT22;23001;45.952;12.676;2023-09-19T03:44:32;20.50;99.90
37086;DHT22;23001;45.952;12.676;2023-09-19T03:46:58;20.50;99.90
37086;DHT22;23001;45.952;12.676;2023-09-19T03:49:24;20.50;99.90
37086;DHT22;23001;45.952;12.676;2023-09-19T03:51:50;20.50;99.90
37086;DHT22;23001;45.952;12.676;2023-09-19T03:54:16;20.50;99.90
37086;DHT22;23001;45.952;12.676;2023-09-19T03:56:44;20.50;99.90
37086;DHT22;23001;45.952;12.676;2023-09-19T03:59:11;20.50;99.90
37086;DHT22;23001;45.952;12.676;2023-09-19T04:01:38;20.50;99.90
37086;DHT22;23001;45.952;12.676;2023-09-19T04:04:05;20.50;99.90
37086;DHT22;23001;45.952;12.676;2023-09-19T04:06:36;20.50;99.90
37086;DHT22;23001;45.952;12.676;2023-09-19T04:09:03;20.50;99.90
37086;DHT22;23001;45.952;12.676;2023-09-19T04:11:29;20.60;99.90
37086;DHT22;23001;45.952;12.676;2023-09-19T04:13:56;20.60;99.90
37086;DHT22;23001;45.952;12.676;2023-09-19T04:16:22;20.50;99.90
37086;DHT22;23001;45.952;12.676;2023-09-19T04:18:48;20.50;99.90
37086;DHT22;23001;45.952;12.676;2023-09-19T04:21:13;20.40;99.90
37086;DHT22;23001;45.952;12.676;2023-09-19T04:23:39;20.40;99.90
37086;DHT22;23001;45.952;12.676;2023-09-19T04:26:05;20.30;99.90
37086;DHT22;23001;45.952;12.676;2023-09-19T04:28:32;20.30;99.90
37086;DHT22;23001;45.952;12.676;2023-09-19T04:31:02;20.30;99.90
37086;DHT22;23001;45.952;12.676;2023-09-19T04:33:28;20.40;99.90
37086;DHT22;23001;45.952;12.676;2023-09-19T04:35:53;20.40;99.90
37086;DHT22;23001;45.952;12.676;2023-09-19T04:38:20;20.40;99.90
37086;DHT22;23001;45.952;12.676;2023-09-19T04:40:46;20.30;99.90
37086;DHT22;23001;45.952;12.676;2023-09-19T04:43:12;20.30;99.90
37086;DHT22;23001;45.952;12.676;2023-09-19T04:45:39;20.30;99.90
37086;DHT22;23001;45.952;12.676;2023-09-19T04:48:06;20.30;99.90
37086;DHT22;23001;45.952;12.676;2023-09-19T04:50:34;20.20;99.90
37086;DHT22;23001;45.952;12.676;2023-09-19T04:53:00;20.30;99.90
37086;DHT22;23001;45.952;12.676;2023-09-19T04:55:27;20.20;99.90
37086;DHT22;23001;45.952;12.676;2023-09-19T04:57:53;20.20;99.90
37086;DHT22;23001;45.952;12.676;2023-09-19T05:00:23;20.20;99.90
37086;DHT22;23001;45.952;12.676;2023-09-19T05:02:55;20.20;99.90
37086;DHT22;23001;45.952;12.676;2023-09-19T05:05:24;20.20;99.90
37086;DHT22;23001;45.952;12.676;2023-09-19T05:07:51;20.20;99.90
37086;DHT22;23001;45.952;12.676;2023-09-19T05:10:19;20.30;99.90
37086;DHT22;23001;45.952;12.676;2023-09-19T05:12:45;20.30;99.90
37086;DHT22;23001;45.952;12.676;2023-09-19T05:15:14;20.20;99.90
37086;DHT22;23001;45.952;12.676;2023-09-19T05:18:30;20.20;99.90
37086;DHT22;23001;45.952;12.676;2023-09-19T05:20:47;20.30;99.90
37086;DHT22;23001;45.952;12.676;2023-09-19T05:23:12;20.30;99.90
37086;DHT22;23001;45.952;12.676;2023-09-19T05:25:39;20.30;99.90
37086;DHT22;23001;45.952;12.676;2023-09-19T05:28:06;20.20;99.90
37086;DHT22;23001;45.952;12.676;2023-09-19T05:30:33;20.20;99.90
37086;DHT22;23001;45.952;12.676;2023-09-19T05:32:59;20.20;99.90
37086;DHT22;23001;45.952;12.676;2023-09-19T05:35:25;20.20;99.90
37086;DHT22;23001;45.952;12.676;2023-09-19T05:37:52;20.30;99.90
37086;DHT22;23001;45.952;12.676;2023-09-19T05:40:19;20.20;99.90
37086;DHT22;23001;45.952;12.676;2023-09-19T05:42:45;20.30;99.90
37086;DHT22;23001;45.952;12.676;2023-09-19T05:45:12;20.30;99.90
37086;DHT22;23001;45.952;12.676;2023-09-19T05:47:49;20.40;99.90
37086;DHT22;23001;45.952;12.676;2023-09-19T05:50:16;20.40;99.90
37086;DHT22;23001;45.952;12.676;2023-09-19T05:52:47;20.40;99.90
37086;DHT22;23001;45.952;12.676;2023-09-19T05:55:17;20.40;99.90
37086;DHT22;23001;45.952;12.676;2023-09-19T05:57:43;20.40;99.90
37086;DHT22;23001;45.952;12.676;2023-09-19T06:00:21;20.50;99.90
37086;DHT22;23001;45.952;12.676;2023-09-19T06:02:57;20.50;99.90
37086;DHT22;23001;45.952;12.676;2023-09-19T06:05:27;20.60;99.90
37086;DHT22;23001;45.952;12.676;2023-09-19T06:07:53;20.90;99.90
37086;DHT22;23001;45.952;12.676;2023-09-19T06:10:20;21.10;99.90
37086;DHT22;23001;45.952;12.676;2023-09-19T06:12:54;21.30;99.90
37086;DHT22;23001;45.952;12.676;2023-09-19T06:15:21;21.60;99.90
37086;DHT22;23001;45.952;12.676;2023-09-19T06:17:50;21.80;99.90
37086;DHT22;23001;45.952;12.676;2023-09-19T06:20:16;22.10;99.90
37086;DHT22;23001;45.952;12.676;2023-09-19T06:22:44;22.30;99.90
37086;DHT22;23001;45.952;12.676;2023-09-19T06:25:10;22.50;99.90
37086;DHT22;23001;45.952;12.676;2023-09-19T06:39:53;22.70;99.90
37086;DHT22;23001;45.952;12.676;2023-09-19T06:42:19;23.30;99.90
37086;DHT22;23001;45.952;12.676;2023-09-19T06:44:45;23.30;99.90
37086;DHT22;23001;45.952;12.676;2023-09-19T06:47:11;23.50;99.90
37086;DHT22;23001;45.952;12.676;2023-09-19T06:49:37;23.60;99.90
37086;DHT22;23001;45.952;12.676;2023-09-19T06:52:15;23.70;99.90
37086;DHT22;23001;45.952;12.676;2023-09-19T06:54:41;23.90;99.90
37086;DHT22;23001;45.952;12.676;2023-09-19T06:57:07;24.10;99.90
37086;DHT22;23001;45.952;12.676;2023-09-19T06:59:35;24.00;99.90
37086;DHT22;23001;45.952;12.676;2023-09-19T07:02:02;24.10;99.90
37086;DHT22;23001;45.952;12.676;2023-09-19T07:04:31;24.20;99.90
37086;DHT22;23001;45.952;12.676;2023-09-19T07:06:58;24.20;99.90
37086;DHT22;23001;45.952;12.676;2023-09-19T07:09:23;24.30;99.90
37086;DHT22;23001;45.952;12.676;2023-09-19T07:11:58;24.30;99.90
37086;DHT22;23001;45.952;12.676;2023-09-19T07:14:30;24.40;99.90
37086;DHT22;23001;45.952;12.676;2023-09-19T07:16:56;24.70;99.90
37086;DHT22;23001;45.952;12.676;2023-09-19T07:19:22;24.80;99.90
37086;DHT22;23001;45.952;12.676;2023-09-19T07:21:50;24.90;99.90
37086;DHT22;23001;45.952;12.676;2023-09-19T07:24:16;25.00;99.90
37086;DHT22;23001;45.952;12.676;2023-09-19T07:26:45;25.10;99.90
37086;DHT22;23001;45.952;12.676;2023-09-19T07:29:11;25.00;99.90
37086;DHT22;23001;45.952;12.676;2023-09-19T07:31:37;24.90;99.90
37086;DHT22;23001;45.952;12.676;2023-09-19T07:34:02;24.80;99.90
37086;DHT22;23001;45.952;12.676;2023-09-19T07:36:29;24.80;99.90
37086;DHT22;23001;45.952;12.676;2023-09-19T07:38:56;25.00;99.90
37086;DHT22;23001;45.952;12.676;2023-09-19T07:41:24;25.20;99.90
37086;DHT22;23001;45.952;12.676;2023-09-19T07:44:09;25.20;99.90
37086;DHT22;23001;45.952;12.676;2023-09-19T07:46:38;25.10;99.90
37086;DHT22;23001;45.952;12.676;2023-09-19T07:49:04;25.00;99.90
37086;DHT22;23001;45.952;12.676;2023-09-19T07:51:31;25.10;99.90
37086;DHT22;23001;45.952;12.676;2023-09-19T07:53:59;25.10;99.90
37086;DHT22;23001;45.952;12.676;2023-09-19T07:56:24;25.00;99.90
37086;DHT22;23001;45.952;12.676;2023-09-19T07:58:53;25.10;99.90
37086;DHT22;23001;45.952;12.676;2023-09-19T08:01:18;25.20;99.90
37086;DHT22;23001;45.952;12.676;2023-09-19T08:03:44;25.30;99.90
37086;DHT22;23001;45.952;12.676;2023-09-19T08:06:13;25.30;99.90
37086;DHT22;23001;45.952;12.676;2023-09-19T08:08:51;25.40;99.90
37086;DHT22;23001;45.952;12.676;2023-09-19T08:11:20;25.40;99.90
37086;DHT22;23001;45.952;12.676;2023-09-19T08:13:47;25.40;99.90
37086;DHT22;23001;45.952;12.676;2023-09-19T08:16:15;25.40;99.90
37086;DHT22;23001;45.952;12.676;2023-09-19T08:19:03;25.40;99.90
37086;DHT22;23001;45.952;12.676;2023-09-19T08:21:49;25.40;99.90
37086;DHT22;23001;45.952;12.676;2023-09-19T08:24:27;25.10;99.90
37086;DHT22;23001;45.952;12.676;2023-09-19T08:26:57;25.00;99.90
37086;DHT22;23001;45.952;12.676;2023-09-19T08:29:24;25.10;99.90
37086;DHT22;23001;45.952;12.676;2023-09-19T08:31:59;25.10;99.90
37086;DHT22;23001;45.952;12.676;2023-09-19T08:34:28;24.90;99.90
37086;DHT22;23001;45.952;12.676;2023-09-19T08:36:58;24.80;99.90
37086;DHT22;23001;45.952;12.676;2023-09-19T08:39:24;24.80;99.90
37086;DHT22;23001;45.952;12.676;2023-09-19T08:42:01;24.80;99.90
37086;DHT22;23001;45.952;12.676;2023-09-19T08:44:37;24.70;99.90
37086;DHT22;23001;45.952;12.676;2023-09-19T08:47:10;24.80;99.90
37086;DHT22;23001;45.952;12.676;2023-09-19T08:49:58;24.90;99.90
37086;DHT22;23001;45.952;12.676;2023-09-19T08:52:43;24.90;99.90
37086;DHT22;23001;45.952;12.676;2023-09-19T08:55:13;24.90;99.90
37086;DHT22;23001;45.952;12.676;2023-09-19T08:57:47;24.90;99.90
37086;DHT22;23001;45.952;12.676;2023-09-19T09:00:24;24.90;99.90
37086;DHT22;23001;45.952;12.676;2023-09-19T09:02:57;25.00;99.90
37086;DHT22;23001;45.952;12.676;2023-09-19T09:05:24;25.00;99.90
37086;DHT22;23001;45.952;12.676;2023-09-19T09:07:52;25.00;99.90
37086;DHT22;23001;45.952;12.676;2023-09-19T09:13:19;25.20;99.90
37086;DHT22;23001;45.952;12.676;2023-09-19T09:15:48;25.20;99.90
37086;DHT22;23001;45.952;12.676;2023-09-19T09:18:16;25.20;99.90
37086;DHT22;23001;45.952;12.676;2023-09-19T09:20:50;25.30;99.90
37086;DHT22;23001;45.952;12.676;2023-09-19T09:23:16;25.40;99.90
37086;DHT22;23001;45.952;12.676;2023-09-19T09:25:50;25.40;99.90
37086;DHT22;23001;45.952;12.676;2023-09-19T09:28:21;25.50;99.90
37086;DHT22;23001;45.952;12.676;2023-09-19T09:30:47;25.70;99.90
37086;DHT22;23001;45.952;12.676;2023-09-19T09:33:14;25.80;99.90
37086;DHT22;23001;45.952;12.676;2023-09-19T09:36:00;25.90;99.90
37086;DHT22;23001;45.952;12.676;2023-09-19T09:38:42;25.90;99.90
37086;DHT22;23001;45.952;12.676;2023-09-19T09:41:12;26.00;99.90
37086;DHT22;23001;45.952;12.676;2023-09-19T09:43:42;26.10;99.90
37086;DHT22;23001;45.952;12.676;2023-09-19T09:50:39;26.10;99.90
37086;DHT22;23001;45.952;12.676;2023-09-19T10:00:56;25.70;99.90
37086;DHT22;23001;45.952;12.676;2023-09-19T10:03:59;25.50;99.90
37086;DHT22;23001;45.952;12.676;2023-09-19T10:06:26;25.50;99.90
37086;DHT22;23001;45.952;12.676;2023-09-19T10:09:07;25.80;99.90
37086;DHT22;23001;45.952;12.676;2023-09-19T10:15:32;26.30;99.90
37086;DHT22;23001;45.952;12.676;2023-09-19T10:18:37;26.20;99.90
37086;DHT22;23001;45.952;12.676;2023-09-19T10:21:22;25.90;99.90
37086;DHT22;23001;45.952;12.676;2023-09-19T10:24:30;25.70;99.90
37086;DHT22;23001;45.952;12.676;2023-09-19T10:27:36;25.80;99.90
37086;DHT22;23001;45.952;12.676;2023-09-19T10:33:48;25.80;99.90
37086;DHT22;23001;45.952;12.676;2023-09-19T10:40:39;25.70;99.90
37086;DHT22;23001;45.952;12.676;2023-09-19T10:43:06;25.70;99.90
37086;DHT22;23001;45.952;12.676;2023-09-19T10:52:01;26.20;99.90
37086;DHT22;23001;45.952;12.676;2023-09-19T11:52:18;26.60;99.90
37086;DHT22;23001;45.952;12.676;2023-09-19T11:54:58;26.70;99.90
37086;DHT22;23001;45.952;12.676;2023-09-19T11:58:01;26.60;99.90
37086;DHT22;23001;45.952;12.676;2023-09-19T12:00:53;26.80;99.90
37086;DHT22;23001;45.952;12.676;2023-09-19T12:03:33;27.10;99.90
37086;DHT22;23001;45.952;12.676;2023-09-19T12:06:36;27.40;99.90
37086;DHT22;23001;45.952;12.676;2023-09-19T12:09:40;27.70;99.90
37086;DHT22;23001;45.952;12.676;2023-09-19T12:33:29;27.30;99.90
37086;DHT22;23001;45.952;12.676;2023-09-19T12:43:25;27.30;99.90
37086;DHT22;23001;45.952;12.676;2023-09-19T12:49:36;27.30;99.90
37086;DHT22;23001;45.952;12.676;2023-09-19T12:56:01;27.30;99.90
37086;DHT22;23001;45.952;12.676;2023-09-19T12:58:32;27.20;99.90
37086;DHT22;23001;45.952;12.676;2023-09-19T13:01:00;27.30;99.90
37086;DHT22;23001;45.952;12.676;2023-09-19T13:04:21;27.10;99.90
37086;DHT22;23001;45.952;12.676;2023-09-19T13:10:10;27.00;99.90
37086;DHT22;23001;45.952;12.676;2023-09-19T13:12:38;27.00;99.90
37086;DHT22;23001;45.952;12.676;2023-09-19T13:15:13;27.10;99.90
37086;DHT22;23001;45.952;12.676;2023-09-19T13:17:49;27.30;99.90
37086;DHT22;23001;45.952;12.676;2023-09-19T13:20:26;27.30;99.90
37086;DHT22;23001;45.952;12.676;2023-09-19T13:23:00;27.40;99.90
37086;DHT22;23001;45.952;12.676;2023-09-19T13:25:38;27.60;99.90
37086;DHT22;23001;45.952;12.676;2023-09-19T13:28:05;27.40;99.90
37086;DHT22;23001;45.952;12.676;2023-09-19T13:30:37;27.30;99.90
37086;DHT22;23001;45.952;12.676;2023-09-19T13:33:11;27.20;99.90
37086;DHT22;23001;45.952;12.676;2023-09-19T13:35:42;27.20;99.90
37086;DHT22;23001;45.952;12.676;2023-09-19T13:38:37;26.40;99.90
37086;DHT22;23001;45.952;12.676;2023-09-19T13:51:38;24.70;99.90
37086;DHT22;23001;45.952;12.676;2023-09-19T14:05:16;24.40;99.90
37086;DHT22;23001;45.952;12.676;2023-09-19T14:08:08;24.50;99.90
37086;DHT22;23001;45.952;12.676;2023-09-19T14:17:31;24.40;99.90
37086;DHT22;23001;45.952;12.676;2023-09-19T14:20:52;24.40;99.90
37086;DHT22;23001;45.952;12.676;2023-09-19T14:23:56;24.30;99.90
37086;DHT22;23001;45.952;12.676;2023-09-19T14:29:53;24.50;99.90
37086;DHT22;23001;45.952;12.676;2023-09-19T14:32:21;24.50;99.90
37086;DHT22;23001;45.952;12.676;2023-09-19T14:34:47;24.50;99.90
37086;DHT22;23001;45.952;12.676;2023-09-19T14:37:13;24.60;99.90
37086;DHT22;23001;45.952;12.676;2023-09-19T14:39:43;24.60;99.90
37086;DHT22;23001;45.952;12.676;2023-09-19T14:42:20;24.70;99.90
37086;DHT22;23001;45.952;12.676;2023-09-19T14:49:06;24.80;99.90
37086;DHT22;23001;45.952;12.676;2023-09-19T14:58:28;25.00;99.90
37086;DHT22;23001;45.952;12.676;2023-09-19T15:05:02;25.00;99.90
37086;DHT22;23001;45.952;12.676;2023-09-19T15:38:30;25.00;99.90
37086;DHT22;23001;45.952;12.676;2023-09-19T16:02:54;24.90;99.90
37086;DHT22;23001;45.952;12.676;2023-09-19T16:05:45;24.80;99.90
37086;DHT22;23001;45.952;12.676;2023-09-19T16:08:19;24.90;99.90
37086;DHT22;23001;45.952;12.676;2023-09-19T16:10:56;24.80;99.90
37086;DHT22;23001;45.952;12.676;2023-09-19T16:13:26;24.80;99.90
37086;DHT22;23001;45.952;12.676;2023-09-19T16:15:58;24.80;99.90
37086;DHT22;23001;45.952;12.676;2023-09-19T16:19:09;24.80;99.90
37086;DHT22;23001;45.952;12.676;2023-09-19T16:43:06;24.60;99.90
37086;DHT22;23001;45.952;12.676;2023-09-19T16:49:29;24.40;99.90
37086;DHT22;23001;45.952;12.676;2023-09-19T16:52:05;24.30;99.90
37086;DHT22;23001;45.952;12.676;2023-09-19T16:54:32;24.30;99.90
37086;DHT22;23001;45.952;12.676;2023-09-19T16:57:03;24.20;99.90
37086;DHT22;23001;45.952;12.676;2023-09-19T16:59:32;24.20;99.90
37086;DHT22;23001;45.952;12.676;2023-09-19T17:02:03;24.20;99.90
37086;DHT22;23001;45.952;12.676;2023-09-19T17:04:36;24.10;99.90
37086;DHT22;23001;45.952;12.676;2023-09-19T17:07:08;24.00;99.90
37086;DHT22;23001;45.952;12.676;2023-09-19T17:10:02;23.90;99.90
37086;DHT22;23001;45.952;12.676;2023-09-19T17:16:30;23.80;99.90
37086;DHT22;23001;45.952;12.676;2023-09-19T17:19:01;23.70;99.90
37086;DHT22;23001;45.952;12.676;2023-09-19T17:21:32;23.70;99.90
37086;DHT22;23001;45.952;12.676;2023-09-19T17:23:58;23.60;99.90
37086;DHT22;23001;45.952;12.676;2023-09-19T17:26:24;23.60;99.90
37086;DHT22;23001;45.952;12.676;2023-09-19T17:28:54;23.60;99.90
37086;DHT22;23001;45.952;12.676;2023-09-19T17:31:26;23.60;99.90
37086;DHT22;23001;45.952;12.676;2023-09-19T17:33:58;23.60;99.90
37086;DHT22;23001;45.952;12.676;2023-09-19T17:36:26;23.50;99.90
37086;DHT22;23001;45.952;12.676;2023-09-19T17:39:10;23.50;99.90
37086;DHT22;23001;45.952;12.676;2023-09-19T17:41:40;23.40;99.90
37086;DHT22;23001;45.952;12.676;2023-09-19T17:44:40;23.50;99.90
37086;DHT22;23001;45.952;12.676;2023-09-19T17:47:13;23.50;99.90
37086;DHT22;23001;45.952;12.676;2023-09-19T18:00:21;23.20;99.90
37086;DHT22;23001;45.952;12.676;2023-09-19T18:13:25;23.00;99.90
37086;DHT22;23001;45.952;12.676;2023-09-19T18:34:20;22.70;99.90
37086;DHT22;23001;45.952;12.676;2023-09-19T18:38:00;22.70;99.90
37086;DHT22;23001;45.952;12.676;2023-09-19T18:41:38;22.70;99.90
37086;DHT22;23001;45.952;12.676;2023-09-19T18:44:35;22.50;99.90
37086;DHT22;23001;45.952;12.676;2023-09-19T18:51:39;22.40;99.90
37086;DHT22;23001;45.952;12.676;2023-09-19T18:58:31;22.20;99.90
37086;DHT22;23001;45.952;12.676;2023-09-19T19:01:49;22.10;99.90
37086;DHT22;23001;45.952;12.676;2023-09-19T19:08:03;22.00;99.90
37086;DHT22;23001;45.952;12.676;2023-09-19T19:23:49;21.90;99.90
37086;DHT22;23001;45.952;12.676;2023-09-19T19:26:39;21.90;99.90
37086;DHT22;23001;45.952;12.676;2023-09-19T19:29:35;21.90;99.90
37086;DHT22;23001;45.952;12.676;2023-09-19T19:32:35;21.80;99.90
37086;DHT22;23001;45.952;12.676;2023-09-19T19:38:18;21.70;99.90
37086;DHT22;23001;45.952;12.676;2023-09-19T19:41:20;21.70;99.90
37086;DHT22;23001;45.952;12.676;2023-09-19T19:44:08;21.70;99.90
37086;DHT22;23001;45.952;12.676;2023-09-19T19:46:41;21.60;99.90
37086;DHT22;23001;45.952;12.676;2023-09-19T19:49:40;21.60;99.90
37086;DHT22;23001;45.952;12.676;2023-09-19T19:52:34;21.60;99.90
37086;DHT22;23001;45.952;12.676;2023-09-19T19:55:12;21.60;99.90
37086;DHT22;23001;45.952;12.676;2023-09-19T19:58:04;21.50;99.90
37086;DHT22;23001;45.952;12.676;2023-09-19T20:00:40;21.50;99.90
37086;DHT22;23001;45.952;12.676;2023-09-19T20:03:15;21.50;99.90
37086;DHT22;23001;45.952;12.676;2023-09-19T20:05:52;21.40;99.90
37086;DHT22;23001;45.952;12.676;2023-09-19T20:08:56;21.30;99.90
37086;DHT22;23001;45.952;12.676;2023-09-19T20:11:52;21.30;99.90
37086;DHT22;23001;45.952;12.676;2023-09-19T20:14:31;21.30;99.90
37086;DHT22;23001;45.952;12.676;2023-09-19T20:17:11;21.30;99.90
37086;DHT22;23001;45.952;12.676;2023-09-19T20:19:56;21.40;99.90
37086;DHT22;23001;45.952;12.676;2023-09-19T20:22:29;21.30;99.90
37086;DHT22;23001;45.952;12.676;2023-09-19T20:25:39;21.30;99.90
37086;DHT22;23001;45.952;12.676;2023-09-19T20:28:14;21.30;99.90
37086;DHT22;23001;45.952;12.676;2023-09-19T20:30:48;21.30;99.90
37086;DHT22;23001;45.952;12.676;2023-09-19T20:36:44;21.10;99.90
37086;DHT22;23001;45.952;12.676;2023-09-19T20:49:36;21.00;99.90
37086;DHT22;23001;45.952;12.676;2023-09-19T20:55:34;21.00;99.90
37086;DHT22;23001;45.952;12.676;2023-09-19T20:58:06;20.90;99.90
37086;DHT22;23001;45.952;12.676;2023-09-19T21:04:32;21.00;99.90
37086;DHT22;23001;45.952;12.676;2023-09-19T21:06:59;21.00;99.90
37086;DHT22;23001;45.952;12.676;2023-09-19T21:19:15;21.00;99.90
37086;DHT22;23001;45.952;12.676;2023-09-19T21:22:13;21.10;99.90
37086;DHT22;23001;45.952;12.676;2023-09-19T21:32:58;21.10;99.90
37086;DHT22;23001;45.952;12.676;2023-09-19T21:39:42;21.00;99.90
37086;DHT22;23001;45.952;12.676;2023-09-19T21:46:40;20.90;99.90
37086;DHT22;23001;45.952;12.676;2023-09-19T21:53:26;20.80;99.90
37086;DHT22;23001;45.952;12.676;2023-09-19T22:16:11;20.80;99.90
37086;DHT22;23001;45.952;12.676;2023-09-19T22:19:12;20.80;99.90
37086;DHT22;23001;45.952;12.676;2023-09-19T22:21:41;20.80;99.90
37086;DHT22;23001;45.952;12.676;2023-09-19T22:24:37;20.70;99.90
37086;DHT22;23001;45.952;12.676;2023-09-19T22:27:07;20.60;99.90
37086;DHT22;23001;45.952;12.676;2023-09-19T22:29:54;20.60;99.90
37086;DHT22;23001;45.952;12.676;2023-09-19T22:32:52;20.60;99.90
37086;DHT22;23001;45.952;12.676;2023-09-19T22:35:21;20.60;99.90
37086;DHT22;23001;45.952;12.676;2023-09-19T22:40:41;20.60;99.90
37086;DHT22;23001;45.952;12.676;2023-09-19T22:43:14;20.50;99.90
37086;DHT22;23001;45.952;12.676;2023-09-19T22:46:31;20.50;99.90
37086;DHT22;23001;45.952;12.676;2023-09-19T22:49:15;20.50;99.90
37086;DHT22;23001;45.952;12.676;2023-09-19T22:51:56;20.30;99.90
37086;DHT22;23001;45.952;12.676;2023-09-19T22:54:33;20.30;99.90
37086;DHT22;23001;45.952;12.676;2023-09-19T22:57:11;20.30;99.90
37086;DHT22;23001;45.952;12.676;2023-09-19T23:00:00;20.30;99.90
37086;DHT22;23001;45.952;12.676;2023-09-19T23:02:32;20.30;99.90
37086;DHT22;23001;45.952;12.676;2023-09-19T23:05:16;20.20;99.90
37086;DHT22;23001;45.952;12.676;2023-09-19T23:07:43;20.20;99.90
37086;DHT22;23001;45.952;12.676;2023-09-19T23:10:13;20.10;99.90
37086;DHT22;23001;45.952;12.676;2023-09-19T23:16:33;20.30;99.90